South of the Border, South Carolina
Current Conditions -  °F | °C
As of 3:52 AM on Friday 19 Dec 2014 (Local Time) from KMEB Reporting Station
Overcast Overcast  
Wind Chill: 37°   Ceiling: 6500
Heat Index: 37°   Visibility: 10mi
Dew Point: 34°   Wind: 3mph
Humidity: 89%   Direction: 10°N
Pressure: 30.11"   Gusts: NA
Location:  34.5115°N, 79.4035°W
Report Text: KMEB 190852Z AUTO 01003KT 10SM OVC065 03/01 A3011 RMK AO2 SLP196 T00280011 53001
Loading
Personal Weather Stations






























Interactive Weather Map New forecast layout! Learn more

10-Day Weather Forecast

Advertisements
Track Severe Weather on mobile